createdAt,value
2019-03-27T00:00:45.343Z,24.37
2019-03-27T00:03:13.503Z,24.70
2019-03-27T00:05:42.309Z,22.13
2019-03-27T00:08:10.411Z,28.67
2019-03-27T00:10:38.539Z,25.20
2019-03-27T00:13:06.677Z,28.93
2019-03-27T00:15:34.797Z,25.90
2019-03-27T00:18:03.519Z,24.00
2019-03-27T00:20:31.637Z,31.13
2019-03-27T00:22:59.857Z,29.17
2019-03-27T00:25:28.017Z,26.20
2019-03-27T00:28:03.721Z,25.20
2019-03-27T00:30:31.839Z,29.90
2019-03-27T00:32:59.936Z,25.97
2019-03-27T00:35:28.256Z,27.27
2019-03-27T00:37:56.325Z,19.77
2019-03-27T00:40:24.527Z,24.50
2019-03-27T00:42:52.675Z,27.60
2019-03-27T00:45:26.368Z,26.57
2019-03-27T00:47:50.766Z,25.43
2019-03-27T00:50:18.903Z,27.13
2019-03-27T00:52:46.970Z,25.13
2019-03-27T00:55:15.076Z,25.07
2019-03-27T00:57:43.391Z,28.23
2019-03-27T01:00:19.035Z,24.00
2019-03-27T01:02:47.666Z,27.00
2019-03-27T01:05:15.810Z,24.27
2019-03-27T01:07:43.953Z,21.57
2019-03-27T01:10:12.281Z,23.47
2019-03-27T01:12:40.377Z,25.90
2019-03-27T01:15:09.199Z,26.17
2019-03-27T01:17:44.643Z,25.33
2019-03-27T01:20:13.709Z,25.27
2019-03-27T01:22:41.794Z,27.80
2019-03-27T01:25:10.008Z,23.10
2019-03-27T01:27:47.399Z,27.57
2019-03-27T01:30:15.613Z,24.73
2019-03-27T01:32:43.711Z,25.70
2019-03-27T01:35:11.720Z,23.40
2019-03-27T01:37:42.760Z,24.23
2019-03-27T01:40:10.988Z,23.03
2019-03-27T01:42:39.073Z,25.77
2019-03-27T01:45:07.276Z,23.87
2019-03-27T01:47:36.344Z,24.90
2019-03-27T01:50:05.158Z,26.53
2019-03-27T01:52:33.174Z,26.67
2019-03-27T01:55:01.264Z,25.50
2019-03-27T01:57:35.598Z,21.60
2019-03-27T02:00:04.996Z,25.00
2019-03-27T02:02:33.103Z,23.63
2019-03-27T02:05:01.162Z,24.77
2019-03-27T02:07:39.344Z,23.40
2019-03-27T02:10:08.518Z,24.43
2019-03-27T02:12:36.533Z,25.47
2019-03-27T02:15:05.718Z,25.43
2019-03-27T02:17:33.860Z,23.20
2019-03-27T02:20:01.938Z,28.87
2019-03-27T02:22:30.068Z,23.13
2019-03-27T02:24:58.172Z,24.40
2019-03-27T02:27:28.492Z,23.60
2019-03-27T02:29:56.606Z,22.07
2019-03-27T02:32:24.804Z,23.03
2019-03-27T02:34:52.882Z,22.43
2019-03-27T02:37:20.967Z,23.43
2019-03-27T02:39:49.086Z,23.47
2019-03-27T02:42:17.130Z,20.83
2019-03-27T02:44:45.310Z,20.27
2019-03-27T02:47:19.698Z,22.03
2019-03-27T02:49:47.839Z,22.57
2019-03-27T02:52:15.986Z,21.80
2019-03-27T02:54:44.116Z,23.37
2019-03-27T02:57:12.121Z,21.97
2019-03-27T02:59:40.232Z,24.00
2019-03-27T03:02:08.346Z,23.30
2019-03-27T03:04:36.472Z,25.23
2019-03-27T03:07:04.583Z,24.60
2019-03-27T03:09:32.709Z,22.60
2019-03-27T03:12:00.790Z,17.77
2019-03-27T03:14:28.928Z,21.63
2019-03-27T03:16:59.170Z,21.23
2019-03-27T03:19:27.297Z,24.50
2019-03-27T03:21:55.391Z,25.43
2019-03-27T03:24:23.495Z,21.63
2019-03-27T03:27:00.711Z,23.80
2019-03-27T03:29:28.975Z,20.23
2019-03-27T03:31:57.038Z,23.13
2019-03-27T03:34:25.136Z,24.57
2019-03-27T03:36:53.945Z,24.57
2019-03-27T03:39:22.058Z,24.53
2019-03-27T03:41:50.277Z,28.17
2019-03-27T03:44:18.709Z,19.57
2019-03-27T03:46:59.448Z,21.07
2019-03-27T03:49:16.721Z,19.17
2019-03-27T03:51:44.870Z,23.93
2019-03-27T03:54:13.691Z,22.70
2019-03-27T03:56:42.907Z,18.90
2019-03-27T03:59:19.679Z,23.13
2019-03-27T04:01:49.669Z,22.63
2019-03-27T04:04:20.585Z,25.43
2019-03-27T04:06:48.681Z,25.80
2019-03-27T04:09:16.796Z,22.17
2019-03-27T04:11:44.888Z,20.53
2019-03-27T04:14:12.978Z,22.17
2019-03-27T04:16:41.072Z,24.83
2019-03-27T04:19:09.162Z,26.13
2019-03-27T04:21:37.898Z,20.83
2019-03-27T04:24:06.086Z,28.70
2019-03-27T04:26:34.266Z,23.60
2019-03-27T04:29:02.308Z,24.90
2019-03-27T04:31:30.419Z,24.90
2019-03-27T04:33:58.867Z,22.77
2019-03-27T04:36:26.984Z,22.37
2019-03-27T04:38:56.095Z,22.03
2019-03-27T04:41:24.228Z,20.63
2019-03-27T04:43:52.382Z,23.70
2019-03-27T04:46:20.910Z,21.33
2019-03-27T04:48:49.035Z,24.63
2019-03-27T04:51:17.250Z,24.90
2019-03-27T04:53:45.415Z,19.20
2019-03-27T04:56:13.544Z,24.27
2019-03-27T04:58:41.665Z,23.07
2019-03-27T05:01:09.769Z,22.73
2019-03-27T05:03:37.858Z,24.93
2019-03-27T05:06:06.127Z,20.70
2019-03-27T05:08:35.250Z,22.53
2019-03-27T05:11:03.401Z,20.90
2019-03-27T05:13:31.514Z,24.80
2019-03-27T05:15:59.545Z,25.83
2019-03-27T05:18:33.813Z,21.47
2019-03-27T05:21:01.896Z,20.23
2019-03-27T05:23:29.962Z,24.40
2019-03-27T05:25:58.137Z,24.40
2019-03-27T05:28:26.934Z,20.93
2019-03-27T05:30:55.171Z,25.30
2019-03-27T05:33:23.249Z,23.33
2019-03-27T05:35:51.748Z,25.03
2019-03-27T05:38:19.938Z,22.63
2019-03-27T05:40:48.399Z,24.10
2019-03-27T05:43:16.544Z,23.70
2019-03-27T05:45:44.829Z,22.97
2019-03-27T05:48:33.003Z,24.17
2019-03-27T05:51:01.138Z,25.43
2019-03-27T05:53:29.974Z,21.97
2019-03-27T05:55:58.041Z,27.67
2019-03-27T05:58:43.509Z,25.70
2019-03-27T06:01:11.740Z,25.07
2019-03-27T06:03:43.081Z,26.37
2019-03-27T06:06:11.259Z,25.63
2019-03-27T06:08:43.845Z,29.53
2019-03-27T06:11:25.258Z,25.13
2019-03-27T06:13:56.516Z,28.53
2019-03-27T06:16:24.698Z,21.83
2019-03-27T06:18:52.846Z,27.60
2019-03-27T06:21:21.022Z,31.90
2019-03-27T06:23:49.214Z,27.40
2019-03-27T06:26:18.573Z,25.80
2019-03-27T06:28:57.442Z,27.73
2019-03-27T06:31:27.069Z,30.13
2019-03-27T06:33:55.590Z,29.57
2019-03-27T06:36:24.072Z,32.83
2019-03-27T06:38:52.306Z,39.33
2019-03-27T06:41:20.473Z,27.70
2019-03-27T06:43:48.634Z,28.13
2019-03-27T06:46:16.804Z,28.90
2019-03-27T06:48:44.944Z,32.70
2019-03-27T06:51:12.956Z,36.07
2019-03-27T06:53:41.233Z,29.40
2019-03-27T06:56:10.740Z,34.83
2019-03-27T06:58:38.807Z,34.17
2019-03-27T07:01:06.964Z,30.93
2019-03-27T07:03:35.211Z,33.53
2019-03-27T07:06:03.388Z,38.00
2019-03-27T07:08:38.652Z,32.17
2019-03-27T07:11:06.824Z,30.67
2019-03-27T07:13:35.749Z,35.83
2019-03-27T07:16:03.881Z,33.97
2019-03-27T07:18:40.707Z,37.30
2019-03-27T07:21:08.988Z,31.57
2019-03-27T07:23:37.329Z,37.43
2019-03-27T07:26:05.508Z,31.23
2019-03-27T07:28:40.740Z,28.37
2019-03-27T07:31:09.036Z,31.73
2019-03-27T07:33:37.308Z,27.10
2019-03-27T07:36:05.870Z,31.63
2019-03-27T07:38:34.003Z,30.40
2019-03-27T07:41:02.542Z,29.13
2019-03-27T07:43:30.823Z,32.70
2019-03-27T07:45:59.796Z,29.93
2019-03-27T07:48:27.993Z,33.00
2019-03-27T07:50:56.238Z,33.43
2019-03-27T07:53:24.506Z,29.23
2019-03-27T07:55:52.680Z,30.30
2019-03-27T07:58:25.885Z,31.83
2019-03-27T08:00:54.053Z,31.50
2019-03-27T08:03:22.237Z,28.10
2019-03-27T08:05:50.498Z,27.00
2019-03-27T08:08:23.976Z,28.17
2019-03-27T08:10:52.019Z,35.17
2019-03-27T08:13:20.237Z,30.53
2019-03-27T08:15:48.459Z,26.80
2019-03-27T08:18:19.633Z,28.67
2019-03-27T08:20:47.861Z,23.40
2019-03-27T08:23:16.144Z,27.70
2019-03-27T08:25:44.327Z,27.67
2019-03-27T08:28:12.591Z,29.23
2019-03-27T08:30:40.749Z,30.63
2019-03-27T08:33:08.874Z,28.13
2019-03-27T08:35:37.185Z,24.87
2019-03-27T08:38:05.787Z,32.53
2019-03-27T08:40:34.159Z,25.20
2019-03-27T08:43:02.255Z,28.13
2019-03-27T08:45:30.401Z,25.50
2019-03-27T08:48:02.931Z,27.07
2019-03-27T08:50:31.682Z,20.97
2019-03-27T08:53:00.057Z,21.80
2019-03-27T08:55:28.231Z,24.97
2019-03-27T08:57:56.401Z,19.37
2019-03-27T09:00:47.710Z,23.63
2019-03-27T09:03:16.543Z,16.80
2019-03-27T09:05:44.945Z,19.47
2019-03-27T09:08:16.471Z,15.77
2019-03-27T09:10:44.941Z,19.37
2019-03-27T09:13:13.127Z,12.73
2019-03-27T09:15:41.437Z,14.47
2019-03-27T09:18:11.797Z,16.03
2019-03-27T09:20:39.959Z,13.50
2019-03-27T09:23:08.107Z,13.40
2019-03-27T09:25:36.273Z,14.80
2019-03-27T09:28:05.396Z,16.97
2019-03-27T09:30:33.580Z,16.00
2019-03-27T09:33:01.825Z,14.37
2019-03-27T09:35:30.133Z,14.23
2019-03-27T09:38:03.093Z,13.43
2019-03-27T09:40:31.352Z,17.53
2019-03-27T09:42:59.533Z,14.07
2019-03-27T09:45:27.862Z,14.63
2019-03-27T09:47:59.122Z,9.67
2019-03-27T09:50:27.293Z,9.87
2019-03-27T09:52:55.459Z,10.33
2019-03-27T09:55:23.938Z,7.37
2019-03-27T09:57:51.992Z,6.83
2019-03-27T10:00:47.196Z,7.60
2019-03-27T10:03:15.324Z,10.47
2019-03-27T10:05:44.577Z,6.33
2019-03-27T10:08:12.776Z,8.77
2019-03-27T10:10:40.955Z,9.40
2019-03-27T10:13:09.134Z,9.87
2019-03-27T10:15:37.236Z,13.23
2019-03-27T10:18:08.346Z,12.83
2019-03-27T10:20:39.289Z,12.77
2019-03-27T10:23:07.575Z,10.20
2019-03-27T10:25:35.760Z,7.23
2019-03-27T10:28:24.931Z,10.67
2019-03-27T10:30:53.130Z,8.97
2019-03-27T10:33:22.105Z,10.37
2019-03-27T10:35:50.299Z,9.80
2019-03-27T10:38:18.412Z,11.80
2019-03-27T10:40:46.752Z,11.50
2019-03-27T10:43:14.959Z,10.33
2019-03-27T10:45:45.310Z,7.63
2019-03-27T10:48:16.497Z,10.10
2019-03-27T10:50:44.640Z,11.07
2019-03-27T10:53:13.325Z,8.93
2019-03-27T10:55:42.210Z,7.83
2019-03-27T10:58:10.408Z,10.57
2019-03-27T11:00:38.477Z,10.83
2019-03-27T11:03:06.504Z,8.60
2019-03-27T11:05:34.661Z,11.30
2019-03-27T11:08:14.845Z,8.63
2019-03-27T11:10:42.977Z,7.43
2019-03-27T11:13:11.582Z,9.80
2019-03-27T11:15:39.758Z,7.30
2019-03-27T11:18:09.010Z,9.23
2019-03-27T11:20:37.253Z,7.47
2019-03-27T11:23:05.483Z,7.10
2019-03-27T11:25:33.616Z,10.60
2019-03-27T11:28:04.873Z,14.27
2019-03-27T11:30:40.294Z,10.53
2019-03-27T11:33:11.235Z,11.23
2019-03-27T11:35:40.270Z,10.97
2019-03-27T11:38:15.080Z,12.00
2019-03-27T11:40:44.545Z,9.83
2019-03-27T11:43:15.555Z,11.00
2019-03-27T11:45:45.223Z,10.97
2019-03-27T11:48:22.069Z,10.00
2019-03-27T11:50:51.741Z,9.70
2019-03-27T11:53:19.865Z,13.77
2019-03-27T11:55:54.446Z,9.30
2019-03-27T11:58:25.716Z,10.83
2019-03-27T12:01:01.535Z,7.50
2019-03-27T12:03:30.029Z,7.87
2019-03-27T12:05:59.046Z,13.30
2019-03-27T12:08:27.205Z,7.83
2019-03-27T12:10:55.347Z,6.93
2019-03-27T12:13:23.533Z,9.23
2019-03-27T12:15:54.694Z,5.70
2019-03-27T12:18:23.542Z,9.40
2019-03-27T12:20:59.835Z,8.87
2019-03-27T12:23:31.091Z,7.53
2019-03-27T12:25:59.305Z,4.67
2019-03-27T12:28:32.372Z,5.83
2019-03-27T12:31:00.741Z,6.63
2019-03-27T12:33:29.062Z,6.73
2019-03-27T12:35:57.194Z,7.83
2019-03-27T12:38:41.347Z,6.73
2019-03-27T12:41:09.532Z,7.07
2019-03-27T12:43:40.349Z,6.43
2019-03-27T12:46:08.638Z,6.83
2019-03-27T12:48:37.341Z,4.90
2019-03-27T12:51:12.575Z,5.73
2019-03-27T12:53:35.565Z,4.10
2019-03-27T12:56:03.925Z,3.60
2019-03-27T12:58:32.064Z,5.03
2019-03-27T13:01:00.251Z,5.97
2019-03-27T13:03:28.421Z,4.13
2019-03-27T13:05:56.751Z,6.03
2019-03-27T13:08:37.249Z,5.37
2019-03-27T13:11:06.507Z,2.60
2019-03-27T13:13:34.665Z,2.77
2019-03-27T13:16:02.883Z,4.13
2019-03-27T13:18:31.078Z,4.57
2019-03-27T13:20:59.241Z,4.10
2019-03-27T13:23:27.414Z,4.10
2019-03-27T13:25:55.562Z,4.17
2019-03-27T13:28:27.657Z,3.57
2019-03-27T13:30:55.951Z,5.53
2019-03-27T13:33:24.601Z,3.57
2019-03-27T13:35:52.781Z,6.00
2019-03-27T13:38:24.003Z,4.73
2019-03-27T13:40:52.414Z,5.27
2019-03-27T13:43:20.630Z,5.43
2019-03-27T13:45:52.541Z,4.17
2019-03-27T13:48:28.003Z,5.73
2019-03-27T13:50:56.357Z,4.07
2019-03-27T13:53:24.569Z,3.47
2019-03-27T13:55:52.772Z,4.03
2019-03-27T13:58:21.325Z,5.10
2019-03-27T14:00:49.568Z,4.43
2019-03-27T14:03:17.737Z,4.37
2019-03-27T14:05:47.049Z,5.70
2019-03-27T14:08:30.486Z,4.60
2019-03-27T14:11:01.828Z,4.97
2019-03-27T14:13:34.601Z,4.77
2019-03-27T14:16:03.000Z,4.80
2019-03-27T14:18:40.583Z,4.67
2019-03-27T14:21:11.345Z,4.27
2019-03-27T14:23:40.151Z,6.00
2019-03-27T14:26:08.341Z,3.57
2019-03-27T14:31:31.963Z,4.67
2019-03-27T14:34:00.108Z,5.93
2019-03-27T14:36:30.229Z,4.20
2019-03-27T14:39:15.898Z,6.47
2019-03-27T14:41:44.317Z,4.23
2019-03-27T14:44:12.460Z,3.80
2019-03-27T14:46:40.661Z,5.30
2019-03-27T14:49:27.684Z,4.17
2019-03-27T14:52:07.682Z,4.70
2019-03-27T14:54:25.931Z,5.40
2019-03-27T14:56:54.182Z,4.07
2019-03-27T14:59:22.336Z,6.00
2019-03-27T15:01:50.549Z,6.67
2019-03-27T15:04:23.160Z,4.27
2019-03-27T15:06:51.364Z,3.70
2019-03-27T15:09:22.224Z,4.40
2019-03-27T15:11:50.406Z,4.77
2019-03-27T15:14:18.744Z,3.63
2019-03-27T15:16:46.949Z,4.37
2019-03-27T15:19:27.415Z,3.03
2019-03-27T15:21:58.019Z,4.90
2019-03-27T15:24:26.216Z,4.47
2019-03-27T15:26:54.414Z,3.13
2019-03-27T15:29:22.805Z,6.00
2019-03-27T15:31:51.077Z,4.23
2019-03-27T15:34:19.322Z,6.43
2019-03-27T15:36:47.647Z,5.40
2019-03-27T15:39:15.834Z,4.73
2019-03-27T15:41:43.971Z,3.67
2019-03-27T15:44:12.209Z,5.57
2019-03-27T15:46:40.377Z,6.80
2019-03-27T15:49:11.603Z,5.00
2019-03-27T15:51:39.962Z,6.30
2019-03-27T15:54:10.762Z,4.67
2019-03-27T15:56:39.019Z,5.77
2019-03-27T15:59:08.868Z,7.17
2019-03-27T16:01:37.001Z,5.73
2019-03-27T16:04:05.259Z,5.53
2019-03-27T16:06:33.444Z,7.03
2019-03-27T16:09:06.622Z,5.10
2019-03-27T16:11:38.908Z,5.27
2019-03-27T16:14:07.112Z,5.20
2019-03-27T16:16:35.604Z,4.93
2019-03-27T16:19:07.427Z,4.53
2019-03-27T16:21:37.831Z,7.90
2019-03-27T16:24:06.894Z,5.40
2019-03-27T16:26:37.502Z,7.00
2019-03-27T16:29:20.811Z,4.80
2019-03-27T16:31:49.862Z,6.50
2019-03-27T16:34:18.120Z,6.47
2019-03-27T16:36:46.266Z,5.10
2019-03-27T16:39:22.917Z,4.97
2019-03-27T16:41:52.935Z,4.57
2019-03-27T16:44:21.813Z,6.80
2019-03-27T16:46:49.926Z,5.57
2019-03-27T16:49:18.205Z,6.13
2019-03-27T16:51:46.462Z,4.03
2019-03-27T16:54:14.641Z,4.10
2019-03-27T16:56:42.822Z,5.83
2019-03-27T16:59:16.787Z,4.50
2019-03-27T17:01:49.819Z,5.47
2019-03-27T17:04:17.931Z,6.23
2019-03-27T17:06:46.060Z,7.00
2019-03-27T17:09:19.185Z,6.93
2019-03-27T17:11:47.835Z,5.80
2019-03-27T17:14:16.115Z,5.93
2019-03-27T17:16:44.388Z,5.83
2019-03-27T17:19:13.828Z,5.10
2019-03-27T17:21:41.920Z,4.03
2019-03-27T17:24:10.229Z,7.30
2019-03-27T17:26:38.449Z,6.43
2019-03-27T17:29:16.007Z,6.50
2019-03-27T17:31:44.264Z,6.57
2019-03-27T17:34:12.831Z,6.23
2019-03-27T17:36:41.071Z,6.07
2019-03-27T17:39:15.459Z,4.10
2019-03-27T17:41:44.043Z,7.63
2019-03-27T17:44:12.778Z,5.80
2019-03-27T17:46:40.913Z,4.63
2019-03-27T17:49:09.212Z,5.53
2019-03-27T17:51:38.091Z,3.87
2019-03-27T17:54:19.655Z,5.67
2019-03-27T17:56:36.834Z,3.87
2019-03-27T17:59:08.078Z,4.63
2019-03-27T18:01:36.455Z,4.10
2019-03-27T18:04:04.697Z,4.77
2019-03-27T18:06:32.962Z,6.27
2019-03-27T18:09:13.152Z,7.10
2019-03-27T18:11:41.572Z,9.00
2019-03-27T18:14:11.043Z,7.43
2019-03-27T18:16:39.175Z,9.67
2019-03-27T18:19:13.548Z,7.70
2019-03-27T18:21:41.862Z,6.37
2019-03-27T18:24:10.025Z,8.33
2019-03-27T18:26:38.186Z,8.50
2019-03-27T18:29:21.489Z,8.30
2019-03-27T18:31:53.590Z,7.93
2019-03-27T18:34:24.190Z,5.70
2019-03-27T18:36:55.670Z,7.00
2019-03-27T18:39:24.159Z,6.80
2019-03-27T18:41:52.328Z,5.87
2019-03-27T18:44:20.534Z,10.67
2019-03-27T18:46:51.433Z,7.77
2019-03-27T18:49:19.602Z,9.33
2019-03-27T18:52:00.091Z,8.93
2019-03-27T18:54:34.257Z,10.27
2019-03-27T19:01:19.856Z,15.67
2019-03-27T19:04:05.798Z,9.57
2019-03-27T19:06:53.284Z,11.47
2019-03-27T19:09:32.922Z,11.13
2019-03-27T19:12:14.618Z,7.77
2019-03-27T19:14:39.644Z,8.90
2019-03-27T19:17:16.985Z,9.73
2019-03-27T19:20:55.188Z,12.17
2019-03-27T19:23:12.984Z,11.50
2019-03-27T19:25:50.111Z,9.80
2019-03-27T19:28:18.756Z,7.47
2019-03-27T19:30:50.036Z,8.53
2019-03-27T19:33:21.568Z,7.93
2019-03-27T19:35:50.862Z,11.07
2019-03-27T19:38:22.142Z,9.37
2019-03-27T19:40:51.251Z,9.37
2019-03-27T19:43:23.450Z,8.53
2019-03-27T19:45:52.907Z,7.90
2019-03-27T19:48:22.732Z,8.87
2019-03-27T19:50:54.645Z,7.43
2019-03-27T19:53:26.787Z,8.27
2019-03-27T19:55:56.636Z,7.77
2019-03-27T19:58:25.455Z,11.13
2019-03-27T20:00:54.083Z,10.90
2019-03-27T20:03:22.804Z,8.00
2019-03-27T20:05:55.793Z,8.40
2019-03-27T20:08:41.013Z,8.43
2019-03-27T20:11:15.403Z,6.57
2019-03-27T20:13:46.961Z,8.50
2019-03-27T20:19:23.910Z,7.37
2019-03-27T20:21:52.619Z,7.80
2019-03-27T20:24:20.897Z,11.27
2019-03-27T20:27:27.680Z,7.83
2019-03-27T20:29:55.981Z,9.03
2019-03-27T20:32:24.099Z,8.07
2019-03-27T20:34:52.306Z,9.33
2019-03-27T20:37:21.147Z,8.43
2019-03-27T20:39:49.684Z,12.37
2019-03-27T20:42:24.097Z,11.70
2019-03-27T20:44:52.235Z,8.87
2019-03-27T20:47:32.829Z,10.03
2019-03-27T20:50:01.658Z,10.50
2019-03-27T20:52:34.800Z,10.97
2019-03-27T20:55:04.023Z,12.17
2019-03-27T20:57:32.312Z,10.83
2019-03-27T21:00:00.995Z,11.80
2019-03-27T21:02:29.363Z,11.83
2019-03-27T21:04:57.589Z,11.63
2019-03-27T21:07:34.198Z,12.20
2019-03-27T21:10:02.882Z,11.57
2019-03-27T21:12:33.030Z,13.73
2019-03-27T21:15:02.060Z,12.87
2019-03-27T21:17:40.071Z,13.30
2019-03-27T21:20:08.595Z,14.37
2019-03-27T21:22:37.213Z,12.13
2019-03-27T21:25:08.987Z,13.60
2019-03-27T21:27:38.964Z,13.67
2019-03-27T21:30:08.658Z,11.67
2019-03-27T21:32:37.432Z,12.47
2019-03-27T21:35:06.368Z,11.07
2019-03-27T21:37:39.113Z,11.67
2019-03-27T21:40:07.808Z,14.23
2019-03-27T21:42:36.240Z,13.20
2019-03-27T21:45:08.514Z,14.63
2019-03-27T21:47:42.355Z,15.53
2019-03-27T21:50:10.711Z,13.13
2019-03-27T21:52:38.953Z,11.33
2019-03-27T21:55:22.505Z,11.77
2019-03-27T21:57:54.342Z,12.20
2019-03-27T22:00:39.690Z,13.40
2019-03-27T22:03:08.301Z,13.33
2019-03-27T22:05:37.099Z,14.60
2019-03-27T22:08:14.366Z,15.03
2019-03-27T22:10:43.549Z,13.10
2019-03-27T22:13:11.771Z,12.00
2019-03-27T22:15:39.914Z,14.07
2019-03-27T22:18:10.333Z,11.93
2019-03-27T22:20:39.869Z,14.30
2019-03-27T22:23:27.375Z,10.97
2019-03-27T22:25:55.595Z,15.40
2019-03-27T22:28:25.661Z,10.13
2019-03-27T22:30:53.835Z,10.70
2019-03-27T22:33:24.300Z,12.17
2019-03-27T22:35:52.419Z,13.00
2019-03-27T22:38:32.542Z,11.10
2019-03-27T22:41:00.823Z,10.77
2019-03-27T22:43:28.989Z,10.23
2019-03-27T22:45:57.116Z,12.07
2019-03-27T22:48:25.853Z,12.03
2019-03-27T22:50:54.943Z,11.67
2019-03-27T22:53:23.065Z,11.73
2019-03-27T22:55:51.756Z,8.50
2019-03-27T22:58:19.884Z,10.90
2019-03-27T23:00:51.901Z,11.57
2019-03-27T23:03:19.999Z,11.07
2019-03-27T23:05:48.250Z,12.03
2019-03-27T23:08:19.418Z,10.93
2019-03-27T23:10:47.563Z,11.43
2019-03-27T23:13:15.671Z,9.37
2019-03-27T23:15:43.966Z,11.63
2019-03-27T23:18:12.471Z,12.23
2019-03-27T23:20:40.601Z,12.20
2019-03-27T23:23:08.747Z,13.30
2019-03-27T23:25:36.907Z,13.17
2019-03-27T23:28:14.233Z,12.00
2019-03-27T23:30:42.414Z,10.53
2019-03-27T23:33:10.540Z,10.77
2019-03-27T23:35:38.672Z,12.73
2019-03-27T23:38:06.774Z,12.57
2019-03-27T23:40:35.795Z,11.97
2019-03-27T23:43:04.234Z,10.87
2019-03-27T23:45:32.395Z,12.60
2019-03-27T23:48:03.953Z,11.73
2019-03-27T23:50:32.100Z,12.20
2019-03-27T23:53:00.632Z,13.53
2019-03-27T23:55:28.760Z,12.97
2019-03-27T23:57:56.887Z,14.67
